createdAt,value
2023-04-11T00:00:16.813Z,55.37
2023-04-11T00:02:45.382Z,55.68
2023-04-11T00:05:14.460Z,55.58
2023-04-11T00:07:42.752Z,55.78
2023-04-11T00:10:11.745Z,55.52
2023-04-11T00:12:40.140Z,53.77
2023-04-11T00:15:09.670Z,53.74
2023-04-11T00:17:39.481Z,54.13
2023-04-11T00:20:11.082Z,54.22
2023-04-11T00:22:40.108Z,54.94
2023-04-11T00:25:09.051Z,55.65
2023-04-11T00:27:37.347Z,56.09
2023-04-11T00:30:06.956Z,56.48
2023-04-11T00:32:35.474Z,56.94
2023-04-11T00:35:05.726Z,57.06
2023-04-11T00:37:36.367Z,57.28
2023-04-11T00:40:07.795Z,57.70
2023-04-11T00:42:36.109Z,58.08
2023-04-11T00:45:04.850Z,57.93
2023-04-11T00:47:34.581Z,57.90
2023-04-11T00:50:04.856Z,57.19
2023-04-11T00:52:33.661Z,56.81
2023-04-11T00:55:04.154Z,56.41
2023-04-11T00:57:32.473Z,56.55
2023-04-11T01:00:03.724Z,56.45
2023-04-11T01:02:32.284Z,56.23
2023-04-11T01:05:00.915Z,56.10
2023-04-11T01:07:32.578Z,56.06
2023-04-11T01:10:02.633Z,56.05
2023-04-11T01:12:31.667Z,56.03
2023-04-11T01:15:00.288Z,55.88
2023-04-11T01:17:28.541Z,56.04
2023-04-11T01:19:56.587Z,56.51
2023-04-11T01:22:25.600Z,56.35
2023-04-11T01:24:55.090Z,56.53
2023-04-11T01:27:23.329Z,56.49
2023-04-11T01:29:52.203Z,57.03
2023-04-11T01:32:20.508Z,56.82
2023-04-11T01:34:49.348Z,56.67
2023-04-11T01:37:17.548Z,56.57
2023-04-11T01:39:45.650Z,56.89
2023-04-11T01:42:16.151Z,57.00
2023-04-11T01:44:44.675Z,56.74
2023-04-11T01:47:12.696Z,57.39
2023-04-11T01:49:40.738Z,57.28
2023-04-11T01:52:09.285Z,57.01
2023-04-11T01:54:37.528Z,56.73
2023-04-11T01:57:07.612Z,56.77
2023-04-11T01:59:38.333Z,57.12
2023-04-11T02:02:06.527Z,57.64
2023-04-11T02:04:34.637Z,58.03
2023-04-11T02:07:02.667Z,58.01
2023-04-11T02:09:30.757Z,58.05
2023-04-11T02:12:00.118Z,58.51
2023-04-11T02:14:29.867Z,58.58
2023-04-11T02:17:00.009Z,58.25
2023-04-11T02:19:28.077Z,58.37
2023-04-11T02:21:56.092Z,58.01
2023-04-11T02:24:24.117Z,58.57
2023-04-11T02:26:52.180Z,58.39
2023-04-11T02:29:20.207Z,58.32
2023-04-11T02:31:51.005Z,58.42
2023-04-11T02:34:20.418Z,58.47
2023-04-11T02:36:49.037Z,58.83
2023-04-11T02:39:17.191Z,58.87
2023-04-11T02:41:45.363Z,58.78
2023-04-11T02:44:13.606Z,58.74
2023-04-11T02:46:43.252Z,58.68
2023-04-11T02:49:11.901Z,58.79
2023-04-11T02:51:41.311Z,58.51
2023-04-11T02:54:09.570Z,58.49
2023-04-11T02:56:39.319Z,58.58
2023-04-11T02:59:07.607Z,58.67
2023-04-11T03:01:37.773Z,58.58
2023-04-11T03:04:07.363Z,58.05
2023-04-11T03:06:49.780Z,58.23
2023-04-11T03:09:18.021Z,58.50
2023-04-11T03:11:47.446Z,58.38
2023-04-11T03:14:16.248Z,57.94
2023-04-11T03:16:44.318Z,58.19
2023-04-11T03:19:13.102Z,58.03
2023-04-11T03:21:41.175Z,58.36
2023-04-11T03:24:12.632Z,57.99
2023-04-11T03:26:41.261Z,58.83
2023-04-11T03:29:12.678Z,58.48
2023-04-11T03:31:53.615Z,58.56
2023-04-11T03:34:22.029Z,58.71
2023-04-11T03:36:50.991Z,58.86
2023-04-11T03:39:21.744Z,58.77
2023-04-11T03:41:51.070Z,59.77
2023-04-11T03:44:19.880Z,60.14
2023-04-11T03:46:48.710Z,59.82
2023-04-11T03:49:17.275Z,59.84
2023-04-11T03:51:50.209Z,59.56
2023-04-11T03:54:18.308Z,59.53
2023-04-11T03:56:47.706Z,59.18
2023-04-11T03:59:21.351Z,59.52
2023-04-11T04:01:55.163Z,59.55
2023-04-11T04:04:23.648Z,59.25
2023-04-11T04:07:01.908Z,59.26
2023-04-11T04:09:37.288Z,59.41
2023-04-11T04:12:08.019Z,59.15
2023-04-11T04:14:50.259Z,59.09
2023-04-11T04:17:19.003Z,59.19
2023-04-11T04:19:47.139Z,59.10
2023-04-11T04:22:17.718Z,59.20
2023-04-11T04:24:51.861Z,59.28
2023-04-11T04:27:25.314Z,59.17
2023-04-11T04:29:56.625Z,59.29
2023-04-11T04:32:41.191Z,59.25
2023-04-11T04:35:14.237Z,59.48
2023-04-11T04:37:45.685Z,59.52
2023-04-11T04:40:40.016Z,59.55
2023-04-11T04:43:11.617Z,59.35
2023-04-11T04:45:47.692Z,59.48
2023-04-11T04:48:20.874Z,59.48
2023-04-11T04:50:48.894Z,59.53
2023-04-11T04:53:17.361Z,59.70
2023-04-11T04:55:52.441Z,59.79
2023-04-11T04:58:23.212Z,59.77
2023-04-11T05:00:55.923Z,59.53
2023-04-11T05:03:28.067Z,59.73
2023-04-11T05:05:56.799Z,59.85
2023-04-11T05:08:26.179Z,59.71
2023-04-11T05:10:57.166Z,59.51
2023-04-11T05:13:26.768Z,59.79
2023-04-11T05:15:54.798Z,59.61
2023-04-11T05:18:26.672Z,59.54
2023-04-11T05:20:54.668Z,59.64
2023-04-11T05:23:25.804Z,59.57
2023-04-11T05:25:56.327Z,59.57
2023-04-11T05:28:26.425Z,59.35
2023-04-11T05:30:54.620Z,59.57
2023-04-11T05:33:24.734Z,59.54
2023-04-11T05:35:53.239Z,59.59
2023-04-11T05:38:21.475Z,59.26
2023-04-11T05:40:49.463Z,59.19
2023-04-11T05:43:17.627Z,59.34
2023-04-11T05:45:47.995Z,59.96
2023-04-11T05:48:19.734Z,59.85
2023-04-11T05:50:49.000Z,59.66
2023-04-11T05:53:17.119Z,59.41
2023-04-11T05:55:45.349Z,59.32
2023-04-11T05:58:13.344Z,59.16
2023-04-11T06:00:41.604Z,59.12
2023-04-11T06:03:11.066Z,59.12
2023-04-11T06:05:39.309Z,59.36
2023-04-11T06:08:08.762Z,59.16
2023-04-11T06:10:37.304Z,58.83
2023-04-11T06:13:05.444Z,58.68
2023-04-11T06:15:33.549Z,58.49
2023-04-11T06:18:01.774Z,58.48
2023-04-11T06:20:31.405Z,58.51
2023-04-11T06:23:01.408Z,58.83
2023-04-11T06:25:29.439Z,58.41
2023-04-11T06:27:57.444Z,57.50
2023-04-11T06:30:25.529Z,57.16
2023-04-11T06:32:53.608Z,57.79
2023-04-11T06:35:24.866Z,58.40
2023-04-11T06:37:54.315Z,58.74
2023-04-11T06:40:22.328Z,59.18
2023-04-11T06:42:50.351Z,59.28
2023-04-11T06:45:18.763Z,59.62
2023-04-11T06:47:46.854Z,59.68
2023-04-11T06:50:14.947Z,59.57
2023-04-11T06:52:42.971Z,59.40
2023-04-11T06:55:15.377Z,59.59
2023-04-11T06:57:44.964Z,59.49
2023-04-11T07:00:14.007Z,59.96
2023-04-11T07:02:42.183Z,60.11
2023-04-11T07:05:10.709Z,59.93
2023-04-11T07:07:38.809Z,59.78
2023-04-11T07:10:08.101Z,59.69
2023-04-11T07:12:37.580Z,59.23
2023-04-11T07:15:06.203Z,59.24
2023-04-11T07:17:34.327Z,58.45
2023-04-11T07:20:02.333Z,57.32
2023-04-11T07:22:30.417Z,57.36
2023-04-11T07:24:58.437Z,57.43
2023-04-11T07:27:26.596Z,57.66
2023-04-11T07:29:56.388Z,57.51
2023-04-11T07:32:24.522Z,57.61
2023-04-11T07:34:52.601Z,57.97
2023-04-11T07:37:20.785Z,58.06
2023-04-11T07:39:49.738Z,58.21
2023-04-11T07:42:17.799Z,58.60
2023-04-11T07:44:46.080Z,58.67
2023-04-11T07:47:16.708Z,58.90
2023-04-11T07:49:44.764Z,59.06
2023-04-11T07:52:14.164Z,59.05
2023-04-11T07:54:42.575Z,59.05
2023-04-11T07:57:10.784Z,59.10
2023-04-11T07:59:38.811Z,59.09
2023-04-11T08:02:08.190Z,59.02
2023-04-11T08:04:38.631Z,59.20
2023-04-11T08:07:06.870Z,59.45
2023-04-11T08:09:35.446Z,59.56
2023-04-11T08:12:03.592Z,59.87
2023-04-11T08:14:31.664Z,60.06
2023-04-11T08:17:01.002Z,59.74
2023-04-11T08:19:29.218Z,59.32
2023-04-11T08:21:58.702Z,59.03
2023-04-11T08:24:26.752Z,58.45
2023-04-11T08:26:54.834Z,58.29
2023-04-11T08:29:22.940Z,58.09
2023-04-11T08:31:50.984Z,58.79
2023-04-11T08:34:19.608Z,57.22
2023-04-11T08:36:47.641Z,54.86
2023-04-11T08:39:17.014Z,54.30
2023-04-11T08:41:45.127Z,54.37
2023-04-11T08:44:13.221Z,54.41
2023-04-11T08:46:43.652Z,54.37
2023-04-11T08:49:12.084Z,53.69
2023-04-11T08:51:44.558Z,52.30
2023-04-11T08:54:13.337Z,52.27
2023-04-11T08:56:43.916Z,52.28
2023-04-11T08:59:12.086Z,49.89
2023-04-11T09:01:40.862Z,50.81
2023-04-11T09:04:10.656Z,51.97
2023-04-11T09:06:40.250Z,53.04
2023-04-11T09:09:09.715Z,53.46
2023-04-11T09:11:55.566Z,54.54
2023-04-11T09:14:26.912Z,55.69
2023-04-11T09:16:56.845Z,52.65
2023-04-11T09:19:25.967Z,52.03
2023-04-11T09:21:55.033Z,51.91
2023-04-11T09:24:23.467Z,52.21
2023-04-11T09:26:52.328Z,51.53
2023-04-11T09:29:37.472Z,51.16
2023-04-11T09:32:05.928Z,52.65
2023-04-11T09:34:37.502Z,53.88
2023-04-11T09:37:05.873Z,54.76
2023-04-11T09:39:33.979Z,54.73
2023-04-11T09:42:03.323Z,55.27
2023-04-11T09:44:39.649Z,53.02
2023-04-11T09:47:07.712Z,52.91
2023-04-11T09:49:36.605Z,52.82
2023-04-11T09:52:06.315Z,52.66
2023-04-11T09:54:34.490Z,52.24
2023-04-11T09:57:04.091Z,50.69
2023-04-11T09:59:33.848Z,50.05
2023-04-11T10:02:04.825Z,49.89
2023-04-11T10:04:34.609Z,49.76
2023-04-11T10:07:10.510Z,50.21
2023-04-11T10:09:40.632Z,51.48
2023-04-11T10:12:08.765Z,52.18
2023-04-11T10:14:43.721Z,52.14
2023-04-11T10:17:16.886Z,52.88
2023-04-11T10:19:48.262Z,52.39
2023-04-11T10:22:49.591Z,51.57
2023-04-11T10:25:17.978Z,53.07
2023-04-11T10:27:49.534Z,53.78
2023-04-11T10:30:17.826Z,53.97
2023-04-11T10:33:15.711Z,53.30
2023-04-11T10:35:58.022Z,52.65
2023-04-11T10:38:47.177Z,52.41
2023-04-11T10:41:31.958Z,53.20
2023-04-11T10:44:15.043Z,53.16
2023-04-11T10:46:47.913Z,53.02
2023-04-11T10:49:36.385Z,53.30
2023-04-11T10:52:21.974Z,53.57
2023-04-11T10:54:51.711Z,53.14
2023-04-11T10:57:20.555Z,52.38
2023-04-11T10:59:59.280Z,52.35
2023-04-11T11:02:43.021Z,53.07
2023-04-11T11:05:23.651Z,53.87
2023-04-11T11:07:54.006Z,54.49
2023-04-11T11:10:52.135Z,54.65
2023-04-11T11:13:20.269Z,54.71
2023-04-11T11:15:49.641Z,54.71
2023-04-11T11:18:18.050Z,54.80
2023-04-11T11:20:55.584Z,54.15
2023-04-11T11:23:29.786Z,53.73
2023-04-11T11:26:01.497Z,54.04
2023-04-11T11:28:34.265Z,53.41
2023-04-11T11:31:06.346Z,52.58
2023-04-11T11:33:43.528Z,53.10
2023-04-11T11:36:17.118Z,52.95
2023-04-11T11:38:55.469Z,51.08
2023-04-11T11:41:25.512Z,50.03
2023-04-11T11:43:56.454Z,50.65
2023-04-11T11:46:34.179Z,49.21
2023-04-11T11:49:05.613Z,50.08
2023-04-11T11:51:48.569Z,48.28
2023-04-11T11:54:19.976Z,46.76
2023-04-11T11:56:54.553Z,45.26
2023-04-11T11:59:34.115Z,45.58
2023-04-11T12:02:07.651Z,46.11
2023-04-11T12:04:39.604Z,44.78
2023-04-11T12:07:22.979Z,43.78
2023-04-11T12:10:01.380Z,42.75
2023-04-11T12:12:41.856Z,42.41
2023-04-11T12:15:13.424Z,41.32
2023-04-11T12:17:45.198Z,41.08
2023-04-11T12:20:16.983Z,41.48
2023-04-11T12:22:53.023Z,42.13
2023-04-11T12:25:26.112Z,42.69
2023-04-11T12:27:56.105Z,44.29
2023-04-11T12:30:27.226Z,46.44
2023-04-11T12:32:58.192Z,47.33
2023-04-11T12:35:27.396Z,47.83
2023-04-11T12:38:00.184Z,48.78
2023-04-11T12:40:31.136Z,49.80
2023-04-11T12:43:00.799Z,50.15
2023-04-11T12:45:30.408Z,50.99
2023-04-11T12:48:04.891Z,51.61
2023-04-11T12:50:34.248Z,51.62
2023-04-11T12:53:08.696Z,52.20
2023-04-11T12:55:43.939Z,52.83
2023-04-11T12:58:15.491Z,52.49
2023-04-11T13:00:48.172Z,52.43
2023-04-11T13:03:31.939Z,51.62
2023-04-11T13:06:02.388Z,51.99
2023-04-11T13:08:33.841Z,51.72
2023-04-11T13:11:06.318Z,51.55
2023-04-11T13:13:41.376Z,50.48
2023-04-11T13:16:14.123Z,49.68
2023-04-11T13:18:52.710Z,49.88
2023-04-11T13:21:22.367Z,49.92
2023-04-11T13:23:53.898Z,50.31
2023-04-11T13:26:23.618Z,50.79
2023-04-11T13:28:53.412Z,50.30
2023-04-11T13:31:27.043Z,49.02
2023-04-11T13:33:57.439Z,47.48
2023-04-11T13:36:27.149Z,46.78
2023-04-11T13:38:57.630Z,46.95
2023-04-11T13:41:26.663Z,48.79
2023-04-11T13:43:54.675Z,50.42
2023-04-11T13:46:23.384Z,52.30
2023-04-11T13:48:51.893Z,49.17
2023-04-11T13:51:20.604Z,44.64
2023-04-11T13:53:48.711Z,43.11
2023-04-11T13:56:18.184Z,43.00
2023-04-11T13:58:46.256Z,42.70
2023-04-11T14:01:15.507Z,43.10
2023-04-11T14:03:44.889Z,43.93
2023-04-11T14:06:13.150Z,41.03
2023-04-11T14:08:41.697Z,40.26
2023-04-11T14:11:09.910Z,39.52
2023-04-11T14:13:39.441Z,40.73
2023-04-11T14:16:09.523Z,40.18
2023-04-11T14:18:38.057Z,40.00
2023-04-11T14:21:07.283Z,39.36
2023-04-11T14:23:35.908Z,39.95
2023-04-11T14:26:03.986Z,41.10
2023-04-11T14:28:32.179Z,40.06
2023-04-11T14:31:01.746Z,39.07
2023-04-11T14:33:29.935Z,39.65
2023-04-11T14:35:57.984Z,40.36
2023-04-11T14:38:26.111Z,40.45
2023-04-11T14:40:54.188Z,37.49
2023-04-11T14:43:22.754Z,37.11
2023-04-11T14:45:51.026Z,38.09
2023-04-11T14:48:20.460Z,38.34
2023-04-11T14:50:48.594Z,38.43
2023-04-11T14:53:16.753Z,38.39
2023-04-11T14:55:44.849Z,38.86
2023-04-11T14:58:12.918Z,39.82
2023-04-11T15:00:41.078Z,39.27
2023-04-11T15:03:10.422Z,39.71
2023-04-11T15:05:40.416Z,38.32
2023-04-11T15:08:09.987Z,39.84
2023-04-11T15:10:38.151Z,38.18
2023-04-11T15:13:07.174Z,38.08
2023-04-11T15:15:35.432Z,38.90
2023-04-11T15:18:25.514Z,38.01
2023-04-11T15:20:56.587Z,39.40
2023-04-11T15:23:25.248Z,40.42
2023-04-11T15:25:55.325Z,40.41
2023-04-11T15:28:24.297Z,40.94
2023-04-11T15:30:53.673Z,41.03
2023-04-11T15:33:24.321Z,40.69
2023-04-11T15:35:55.155Z,40.14
2023-04-11T15:38:23.478Z,40.80
2023-04-11T15:40:52.311Z,40.68
2023-04-11T15:43:20.389Z,40.62
2023-04-11T15:45:49.075Z,40.01
2023-04-11T15:48:17.331Z,39.77
2023-04-11T15:50:46.331Z,39.22
2023-04-11T15:53:15.899Z,38.69
2023-04-11T15:55:44.893Z,38.09
2023-04-11T15:58:12.943Z,37.35
2023-04-11T16:00:42.186Z,38.53
2023-04-11T16:03:10.948Z,38.44
2023-04-11T16:05:43.135Z,39.04
2023-04-11T16:08:11.868Z,38.77
2023-04-11T16:10:41.644Z,39.03
2023-04-11T16:13:10.680Z,39.20
2023-04-11T16:15:38.782Z,39.52
2023-04-11T16:18:07.240Z,39.19
2023-04-11T16:20:35.828Z,39.27
2023-04-11T16:23:04.013Z,38.78
2023-04-11T16:25:32.530Z,35.35
2023-04-11T16:28:02.046Z,35.73
2023-04-11T16:30:30.519Z,35.92
2023-04-11T16:32:58.691Z,36.02
2023-04-11T16:35:26.938Z,35.81
2023-04-11T16:37:55.032Z,35.50
2023-04-11T16:40:23.166Z,35.02
2023-04-11T16:42:51.160Z,35.73
2023-04-11T16:45:21.295Z,35.60
2023-04-11T16:47:49.456Z,35.99
2023-04-11T16:50:17.951Z,36.02
2023-04-11T16:52:46.040Z,36.18
2023-04-11T16:55:15.079Z,35.90
2023-04-11T16:57:43.317Z,35.99
2023-04-11T17:00:15.305Z,35.92
2023-04-11T17:02:45.034Z,36.53
2023-04-11T17:05:13.488Z,36.69
2023-04-11T17:07:41.787Z,37.05
2023-04-11T17:10:10.775Z,36.82
2023-04-11T17:12:38.795Z,36.94
2023-04-11T17:15:08.435Z,37.23
2023-04-11T17:17:36.904Z,37.12
2023-04-11T17:20:09.802Z,37.12
2023-04-11T17:22:41.338Z,36.98
2023-04-11T17:25:10.554Z,37.30
2023-04-11T17:27:38.723Z,37.26
2023-04-11T17:30:09.586Z,37.39
2023-04-11T17:32:38.393Z,37.37
2023-04-11T17:35:08.843Z,37.24
2023-04-11T17:37:37.027Z,37.58
2023-04-11T17:40:11.303Z,37.42
2023-04-11T17:42:40.111Z,37.79
2023-04-11T17:45:16.638Z,37.48
2023-04-11T17:47:46.358Z,37.43
2023-04-11T17:50:16.456Z,37.58
2023-04-11T17:52:46.202Z,38.11
2023-04-11T17:55:17.396Z,38.59
2023-04-11T17:57:46.333Z,39.09
2023-04-11T18:00:19.459Z,39.34
2023-04-11T18:02:49.188Z,39.85
2023-04-11T18:05:24.452Z,40.37
2023-04-11T18:07:54.781Z,40.80
2023-04-11T18:10:23.133Z,41.03
2023-04-11T18:12:52.372Z,41.05
2023-04-11T18:15:21.110Z,41.19
2023-04-11T18:17:49.399Z,41.48
2023-04-11T18:20:19.355Z,41.52
2023-04-11T18:22:48.604Z,41.70
2023-04-11T18:25:16.614Z,42.00
2023-04-11T18:27:44.808Z,42.07
2023-04-11T18:30:14.128Z,42.16
2023-04-11T18:32:48.537Z,42.35
2023-04-11T18:35:19.769Z,42.56
2023-04-11T18:37:47.982Z,42.72
2023-04-11T18:40:16.721Z,42.90
2023-04-11T18:42:46.682Z,43.05
2023-04-11T18:45:15.500Z,43.18
2023-04-11T18:47:44.208Z,43.35
2023-04-11T18:50:12.639Z,43.45
2023-04-11T18:52:43.414Z,43.73
2023-04-11T18:55:12.319Z,43.94
2023-04-11T18:57:41.237Z,44.15
2023-04-11T19:00:17.997Z,44.38
2023-04-11T19:02:47.688Z,44.58
2023-04-11T19:05:16.501Z,44.84
2023-04-11T19:07:46.890Z,44.97
2023-04-11T19:10:14.930Z,45.19
2023-04-11T19:12:43.123Z,45.35
2023-04-11T19:15:12.293Z,45.50
2023-04-11T19:17:40.566Z,45.59
2023-04-11T19:20:12.604Z,45.78
2023-04-11T19:22:41.288Z,45.83
2023-04-11T19:25:12.147Z,45.99
2023-04-11T19:27:41.591Z,46.46
2023-04-11T19:30:11.380Z,46.55
2023-04-11T19:32:43.037Z,46.67
2023-04-11T19:35:12.603Z,47.24
2023-04-11T19:37:41.832Z,47.28
2023-04-11T19:40:13.473Z,47.29
2023-04-11T19:42:42.051Z,47.47
2023-04-11T19:45:11.025Z,47.64
2023-04-11T19:47:40.394Z,47.66
2023-04-11T19:50:11.997Z,48.28
2023-04-11T19:52:40.215Z,48.28
2023-04-11T19:55:10.143Z,48.24
2023-04-11T19:57:40.272Z,48.24
2023-04-11T20:00:14.112Z,48.54
2023-04-11T20:02:45.336Z,48.86
2023-04-11T20:05:14.849Z,49.08
2023-04-11T20:07:44.121Z,49.18
2023-04-11T20:10:13.020Z,49.22
2023-04-11T20:12:42.522Z,49.40
2023-04-11T20:15:11.451Z,49.46
2023-04-11T20:17:39.679Z,49.53
2023-04-11T20:20:11.192Z,49.63
2023-04-11T20:22:40.392Z,49.66
2023-04-11T20:25:11.527Z,49.85
2023-04-11T20:27:40.276Z,50.34
2023-04-11T20:30:11.092Z,50.34
2023-04-11T20:32:39.693Z,50.30
2023-04-11T20:35:08.755Z,50.30
2023-04-11T20:37:37.047Z,50.34
2023-04-11T20:40:08.047Z,50.43
2023-04-11T20:42:39.908Z,50.53
2023-04-11T20:45:11.763Z,50.53
2023-04-11T20:47:40.510Z,50.59
2023-04-11T20:50:10.469Z,50.79
2023-04-11T20:52:41.220Z,50.89
2023-04-11T20:55:10.938Z,50.83
2023-04-11T20:57:39.160Z,50.84
2023-04-11T21:00:14.500Z,50.92
2023-04-11T21:02:44.598Z,51.08
2023-04-11T21:05:13.449Z,51.11
2023-04-11T21:07:43.302Z,51.29
2023-04-11T21:10:12.152Z,51.33
2023-04-11T21:12:40.858Z,51.35
2023-04-11T21:15:11.886Z,51.33
2023-04-11T21:17:40.542Z,51.43
2023-04-11T21:20:17.763Z,51.54
2023-04-11T21:22:46.828Z,51.47
2023-04-11T21:25:15.840Z,51.57
2023-04-11T21:27:43.969Z,51.90
2023-04-11T21:30:14.918Z,52.26
2023-04-11T21:32:43.234Z,52.12
2023-04-11T21:35:12.422Z,51.91
2023-04-11T21:37:40.556Z,51.46
2023-04-11T21:40:09.514Z,51.30
2023-04-11T21:42:37.580Z,51.04
2023-04-11T21:45:06.162Z,50.80
2023-04-11T21:47:35.608Z,50.63
2023-04-11T21:50:03.751Z,50.41
2023-04-11T21:52:31.737Z,50.27
2023-04-11T21:54:59.742Z,50.29
2023-04-11T21:57:27.729Z,50.18
2023-04-11T21:59:55.782Z,49.94
2023-04-11T22:02:23.974Z,49.86
2023-04-11T22:05:05.814Z,49.49
2023-04-11T22:07:39.046Z,49.68
2023-04-11T22:10:10.467Z,49.47
2023-04-11T22:12:39.205Z,49.37
2023-04-11T22:15:08.446Z,49.14
2023-04-11T22:17:37.251Z,49.12
2023-04-11T22:20:09.862Z,49.02
2023-04-11T22:22:38.685Z,48.81
2023-04-11T22:25:08.374Z,48.72
2023-04-11T22:27:36.546Z,48.68
2023-04-11T22:30:05.328Z,48.40
2023-04-11T22:32:33.677Z,48.50
2023-04-11T22:35:02.134Z,48.37
2023-04-11T22:37:31.526Z,48.37
2023-04-11T22:39:59.564Z,48.39
2023-04-11T22:42:27.679Z,48.36
2023-04-11T22:44:55.677Z,48.31
2023-04-11T22:47:23.768Z,48.18
2023-04-11T22:49:51.832Z,47.92
2023-04-11T22:52:24.381Z,47.79
2023-04-11T22:54:53.829Z,47.57
2023-04-11T22:57:21.847Z,47.50
2023-04-11T22:59:49.852Z,47.45
2023-04-11T23:02:17.951Z,47.28
2023-04-11T23:04:46.417Z,47.38
2023-04-11T23:07:14.464Z,47.39
2023-04-11T23:09:42.614Z,47.51
2023-04-11T23:12:12.187Z,47.44
2023-04-11T23:14:40.197Z,47.40
2023-04-11T23:17:08.320Z,47.25
2023-04-11T23:19:36.991Z,47.54
2023-04-11T23:22:05.053Z,47.38
2023-04-11T23:24:33.042Z,47.43
2023-04-11T23:27:01.663Z,47.42
2023-04-11T23:29:31.240Z,47.10
2023-04-11T23:31:59.251Z,47.05
2023-04-11T23:34:27.270Z,47.02
2023-04-11T23:36:55.257Z,46.86
2023-04-11T23:39:23.871Z,46.80
2023-04-11T23:41:53.111Z,46.80
2023-04-11T23:44:21.742Z,46.81
2023-04-11T23:46:51.360Z,46.69
2023-04-11T23:49:19.457Z,46.64
2023-04-11T23:51:47.524Z,46.69
2023-04-11T23:54:15.550Z,46.64
2023-04-11T23:56:44.185Z,46.40
2023-04-11T23:59:12.450Z,46.44
